Time;durP1;ratioP1;P1;durP2;ratioP2;P2;SDS_P1;SDS_P2;PMS_P1;PMS_P2;Temp;Humidity;BMP_temperature;BMP_pressure;BME280_temperature;BME280_humidity;BME280_pressure;Samples;Min_cycle;Max_cycle;Signal;HPM_P1;HPM_P2
2021/06/22 00:14:33;;;;;;;7.10;4.25;;;;;;;23.48;85.66;99636.47;713795;1202;113503;-74
2021/06/22 00:29:35;;;;;;;6.68;4.68;;;;;;;23.49;85.11;99624.73;713846;1203;114996;-74
2021/06/22 00:44:48;;;;;;;7.05;4.68;;;;;;;23.25;86.98;99627.45;713331;1183;114269;-74
2021/06/22 00:59:51;;;;;;;7.43;5.10;;;;;;;23.17;88.17;99625.14;713793;1202;114818;-75
2021/06/22 01:14:53;;;;;;;9.13;4.73;;;;;;;22.97;89.85;99612.11;714031;1203;114816;-74
2021/06/22 01:30:00;;;;;;;9.55;4.80;;;;;;;22.82;90.77;99624.08;713721;1203;113656;-75
2021/06/22 01:45:02;;;;;;;4.97;4.37;;;;;;;22.71;91.26;99620.36;714012;1178;113749;-74
2021/06/22 02:00:05;;;;;;;5.77;5.10;;;;;;;22.60;93.75;99597.90;713949;1201;113646;-74
2021/06/22 02:15:09;;;;;;;12.33;6.15;;;;;;;22.47;94.95;99594.64;713917;1203;113641;-74
2021/06/22 02:30:20;;;;;;;10.83;6.40;;;;;;;22.47;96.59;99608.01;713958;1202;114279;-74
2021/06/22 02:45:23;;;;;;;10.35;8.03;;;;;;;22.41;97.41;99621.23;714081;1177;113784;-76
2021/06/22 03:00:29;;;;;;;13.60;6.60;;;;;;;22.46;98.21;99647.25;713720;1205;114493;-77
2021/06/22 03:15:32;;;;;;;11.87;6.60;;;;;;;22.47;100.00;99651.56;713679;1177;114059;-77
2021/06/22 03:30:34;;;;;;;13.80;8.73;;;;;;;22.63;100.00;99658.09;714016;1203;113990;-86
2021/06/22 03:45:36;;;;;;;11.33;7.53;;;;;;;22.74;100.00;99673.35;714665;1196;114573;-91
2021/06/22 04:00:38;;;;;;;9.35;7.05;;;;;;;23.03;100.00;99686.87;714193;1202;115027;-86
2021/06/22 04:15:40;;;;;;;8.63;6.65;;;;;;;23.42;100.00;99697.11;713496;1205;113681;-89
2021/06/22 04:30:43;;;;;;;10.80;7.05;;;;;;;23.66;100.00;99678.34;714054;1202;114516;-87
2021/06/22 04:45:45;;;;;;;11.77;7.33;;;;;;;24.05;100.00;99694.68;714006;1206;114849;-87
2021/06/22 05:16:44;;;;;;;15.40;7.30;;;;;;;25.07;99.98;99705.55;710110;1203;115328;-73
2021/06/22 05:31:47;;;;;;;12.63;7.57;;;;;;;25.66;98.96;99705.05;709827;1208;114378;-73
2021/06/22 05:46:49;;;;;;;9.70;7.20;;;;;;;26.08;96.43;99723.30;710866;1208;114184;-73
2021/06/22 06:01:51;;;;;;;14.20;7.40;;;;;;;26.50;94.68;99716.48;712364;1206;114055;-73
2021/06/22 06:16:53;;;;;;;12.58;7.40;;;;;;;27.05;92.06;99709.16;712718;1206;113904;-72
2021/06/22 06:31:57;;;;;;;9.60;6.60;;;;;;;27.50;88.78;99716.98;712711;1205;115475;-73
2021/06/22 06:47:00;;;;;;;13.83;6.47;;;;;;;27.97;85.28;99745.74;712035;1205;114473;-73
2021/06/22 07:02:03;;;;;;;12.23;6.03;;;;;;;28.40;83.15;99751.00;712172;1206;113829;-74
2021/06/22 07:17:05;;;;;;;9.30;5.80;;;;;;;28.95;81.65;99745.95;716850;1204;115400;-72
2021/06/22 07:32:08;;;;;;;14.65;6.10;;;;;;;29.70;79.95;99752.59;716243;1206;115151;-74
2021/06/22 07:47:10;;;;;;;12.63;5.37;;;;;;;30.37;77.69;99763.92;712180;1206;113878;-77
2021/06/22 08:02:12;;;;;;;11.80;5.27;;;;;;;31.05;74.45;99772.41;712077;1206;114324;-78
2021/06/22 08:17:15;;;;;;;12.10;4.60;;;;;;;31.79;70.14;99790.38;712156;1209;115140;-78
2021/06/22 08:32:17;;;;;;;11.18;4.53;;;;;;;32.20;67.84;99787.17;712222;1207;114423;-80
2021/06/22 08:47:24;;;;;;;13.93;4.70;;;;;;;32.76;67.68;99785.58;712174;1208;115033;-77
2021/06/22 09:02:28;;;;;;;11.60;5.08;;;;;;;33.55;65.58;99778.53;712285;1206;113837;-78
2021/06/22 09:17:35;;;;;;;12.37;4.63;;;;;;;34.31;63.98;99783.55;712226;1209;114354;-77
2021/06/22 09:32:37;;;;;;;13.73;4.50;;;;;;;34.41;62.24;99790.66;712167;1206;113868;-75
2021/06/22 09:47:45;;;;;;;14.00;4.57;;;;;;;34.18;59.31;99797.93;712148;1206;114457;-75
2021/06/22 10:02:52;;;;;;;8.40;4.70;;;;;;;35.27;59.10;99813.38;712264;1207;113933;-77
2021/06/22 10:17:55;;;;;;;57.40;21.77;;;;;;;34.74;58.32;99830.48;712159;1191;114955;-75
2021/06/22 10:32:58;;;;;;;11.97;5.60;;;;;;;34.77;58.49;99818.97;711621;1206;114418;-77
2021/06/22 10:48:17;;;;;;;9.15;5.75;;;;;;;34.70;58.60;99815.86;712233;1208;114404;-76
2021/06/22 11:03:28;;;;;;;20.30;9.27;;;;;;;35.29;57.30;99824.78;712260;1207;113796;-77
2021/06/22 11:18:55;;;;;;;13.50;7.50;;;;;;;36.20;57.05;99808.10;712054;1206;114531;-74
2021/06/22 11:34:16;;;;;;;14.63;5.30;;;;;;;35.09;57.86;99778.97;712040;1205;114424;-75
2021/06/22 11:49:18;;;;;;;13.10;5.25;;;;;;;36.69;56.01;99769.77;712295;1206;114028;-75
2021/06/22 12:04:24;;;;;;;16.75;5.75;;;;;;;35.06;56.72;99794.02;712203;1209;113715;-74
2021/06/22 12:19:29;;;;;;;10.23;6.40;;;;;;;34.54;60.52;99785.47;711871;1208;114247;-75
2021/06/22 12:34:34;;;;;;;13.70;7.47;;;;;;;34.99;59.94;99778.13;712135;1206;113978;-76
2021/06/22 12:49:39;;;;;;;11.17;6.33;;;;;;;36.13;59.10;99769.58;712215;1208;113884;-73
2021/06/22 13:04:44;;;;;;;11.05;7.05;;;;;;;36.81;58.46;99804.62;712187;1206;114719;-74
2021/06/22 13:19:50;;;;;;;10.47;8.07;;;;;;;35.90;59.54;99805.18;712295;1205;114664;-74
2021/06/22 13:34:53;;;;;;;13.90;7.07;;;;;;;35.04;61.12;99822.70;712377;1205;115394;-74
2021/06/22 13:49:56;;;;;;;10.33;6.50;;;;;;;34.23;62.69;99822.31;712438;1209;113902;-76
2021/06/22 14:04:58;;;;;;;15.53;8.07;;;;;;;33.12;66.30;99844.73;712461;1206;115480;-77
2021/06/22 14:20:01;;;;;;;19.70;11.00;;;;;;;32.47;71.21;99846.23;712212;1209;114827;-75
2021/06/22 14:35:06;;;;;;;12.60;9.20;;;;;;;31.02;77.30;99854.19;711870;1205;115043;-75
2021/06/22 14:50:11;;;;;;;23.20;14.67;;;;;;;31.09;79.65;99853.89;712325;1205;115564;-75
2021/06/22 15:05:14;;;;;;;15.63;10.47;;;;;;;31.33;78.28;99838.52;712239;1206;113517;-76
2021/06/22 15:20:17;;;;;;;14.03;9.60;;;;;;;31.19;79.73;99845.69;712237;1200;115313;-76
2021/06/22 15:35:29;;;;;;;14.73;10.33;;;;;;;30.98;81.62;99870.18;712114;1209;115175;-75
2021/06/22 15:50:37;;;;;;;20.10;10.75;;;;;;;31.02;81.88;99854.19;712120;1206;115216;-74
2021/06/22 16:05:41;;;;;;;16.50;10.90;;;;;;;30.54;82.84;99900.77;712189;1205;113982;-75
2021/06/22 16:20:44;;;;;;;11.43;6.30;;;;;;;26.19;94.51;99959.94;712157;1208;114772;-73
2021/06/22 16:35:46;;;;;;;7.05;4.48;;;;;;;24.52;100.00;99983.16;712337;1208;114841;-76
2021/06/22 16:50:48;;;;;;;49.08;20.75;;;;;;;23.69;100.00;99986.58;712389;1180;115027;-77
2021/06/22 17:05:51;;;;;;;13.70;6.90;;;;;;;23.21;100.00;100036.41;712087;1206;115475;-72
2021/06/22 17:20:53;;;;;;;10.65;7.55;;;;;;;23.71;100.00;100003.21;712117;1206;114642;-74
2021/06/22 17:35:55;;;;;;;13.10;8.00;;;;;;;24.09;100.00;100025.34;712069;1205;114572;-73
2021/06/22 17:50:57;;;;;;;10.77;6.03;;;;;;;24.57;100.00;100027.00;712064;1203;115719;-73
2021/06/22 18:06:00;;;;;;;14.70;7.38;;;;;;;24.07;100.00;100025.58;712275;1203;114467;-75
2021/06/22 18:21:02;;;;;;;10.93;7.70;;;;;;;24.31;100.00;100048.88;712552;1203;115455;-74
2021/06/22 18:36:06;;;;;;;10.15;7.10;;;;;;;23.95;100.00;100039.98;712359;1203;114206;-73
2021/06/22 18:51:09;;;;;;;12.77;7.37;;;;;;;23.64;100.00;100021.25;712350;1206;114123;-73
2021/06/22 19:06:11;;;;;;;8.80;5.85;;;;;;;23.64;100.00;100060.60;712284;1206;115702;-73
2021/06/22 19:21:14;;;;;;;14.87;9.20;;;;;;;23.24;100.00;100046.69;712377;1206;114068;-73
2021/06/22 19:36:16;;;;;;;14.97;10.00;;;;;;;22.87;100.00;100070.74;713121;1208;114704;-71
2021/06/22 19:51:20;;;;;;;14.65;11.90;;;;;;;22.75;100.00;100129.47;712789;1182;113901;-72
2021/06/22 20:06:23;;;;;;;17.85;12.85;;;;;;;22.71;100.00;100175.56;712885;1206;114431;-73
2021/06/22 20:21:25;;;;;;;19.05;11.60;;;;;;;22.38;100.00;100195.33;712433;1206;114795;-73
2021/06/22 20:36:27;;;;;;;18.60;12.05;;;;;;;22.14;100.00;100197.70;712230;1205;116038;-73
2021/06/22 20:51:30;;;;;;;17.47;12.23;;;;;;;22.28;100.00;100183.23;712456;1206;115248;-74
2021/06/22 21:06:32;;;;;;;16.47;13.23;;;;;;;22.21;100.00;100179.80;712243;1181;114790;-73
2021/06/22 21:21:35;;;;;;;17.45;12.53;;;;;;;22.28;100.00;100212.62;712128;1186;114820;-75
2021/06/22 21:36:37;;;;;;;16.38;12.98;;;;;;;22.20;100.00;100228.10;712081;1206;114473;-72
2021/06/22 21:51:40;;;;;;;12.67;11.13;;;;;;;22.03;100.00;100223.23;712057;1206;115594;-72
2021/06/22 22:06:43;;;;;;;17.50;11.00;;;;;;;22.01;100.00;100251.17;712046;1190;114743;-73
2021/06/22 22:21:45;;;;;;;13.30;10.30;;;;;;;21.97;100.00;100239.28;712057;1204;115681;-71
2021/06/22 22:36:47;;;;;;;11.20;9.55;;;;;;;21.85;100.00;100247.94;712192;1181;114663;-72
2021/06/22 22:51:50;;;;;;;12.00;9.10;;;;;;;21.75;100.00;100232.38;712036;1206;115935;-73
2021/06/22 23:06:52;;;;;;;13.90;9.63;;;;;;;21.84;100.00;100240.14;712430;1180;114537;-72
2021/06/22 23:21:55;;;;;;;12.13;8.73;;;;;;;21.86;100.00;100241.58;712473;1206;115005;-74
2021/06/22 23:36:57;;;;;;;13.68;9.65;;;;;;;21.74;100.00;100254.75;712546;1204;114370;-73
2021/06/22 23:51:59;;;;;;;14.90;10.70;;;;;;;21.59;100.00;100272.85;712408;1206;114376;-73
